sensor_id;sensor_type;location;lat;lon;timestamp;pressure;altitude;pressure_sealevel;temperature;humidity
54666;BME280;40566;50.006;36.180;2023-08-31T00:04:30;99529.19;;;18.54;59.13
54666;BME280;40566;50.006;36.180;2023-08-31T00:09:31;99515.72;;;18.46;59.14
54666;BME280;40566;50.006;36.180;2023-08-31T00:14:31;99511.84;;;18.39;59.17
54666;BME280;40566;50.006;36.180;2023-08-31T00:19:32;99509.88;;;18.28;59.25
54666;BME280;40566;50.006;36.180;2023-08-31T00:24:33;99520.47;;;18.27;59.35
54666;BME280;40566;50.006;36.180;2023-08-31T00:29:35;99512.06;;;18.21;59.13
54666;BME280;40566;50.006;36.180;2023-08-31T00:34:39;99515.91;;;18.16;59.54
54666;BME280;40566;50.006;36.180;2023-08-31T00:39:39;99516.00;;;18.14;59.33
54666;BME280;40566;50.006;36.180;2023-08-31T00:44:40;99526.69;;;18.11;59.09
54666;BME280;40566;50.006;36.180;2023-08-31T00:49:40;99523.41;;;18.08;59.46
54666;BME280;40566;50.006;36.180;2023-08-31T00:54:41;99533.22;;;18.04;59.35
54666;BME280;40566;50.006;36.180;2023-08-31T00:59:45;99531.91;;;17.97;59.29
54666;BME280;40566;50.006;36.180;2023-08-31T01:04:58;99512.66;;;17.98;59.47
54666;BME280;40566;50.006;36.180;2023-08-31T01:10:32;99528.75;;;17.92;59.31
54666;BME280;40566;50.006;36.180;2023-08-31T01:15:35;99532.50;;;17.88;59.49
54666;BME280;40566;50.006;36.180;2023-08-31T01:21:11;99520.41;;;17.85;59.59
54666;BME280;40566;50.006;36.180;2023-08-31T01:26:16;99541.59;;;17.80;60.07
54666;BME280;40566;50.006;36.180;2023-08-31T01:31:18;99535.44;;;17.81;59.66
54666;BME280;40566;50.006;36.180;2023-08-31T01:36:29;99532.94;;;17.80;60.09
54666;BME280;40566;50.006;36.180;2023-08-31T01:41:34;99528.81;;;17.76;60.00
54666;BME280;40566;50.006;36.180;2023-08-31T01:46:35;99549.25;;;17.69;60.14
54666;BME280;40566;50.006;36.180;2023-08-31T01:51:36;99549.84;;;17.60;60.45
54666;BME280;40566;50.006;36.180;2023-08-31T01:56:37;99546.47;;;17.58;60.39
54666;BME280;40566;50.006;36.180;2023-08-31T02:01:37;99547.38;;;17.57;60.32
54666;BME280;40566;50.006;36.180;2023-08-31T02:06:38;99550.38;;;17.51;60.42
54666;BME280;40566;50.006;36.180;2023-08-31T02:11:38;99554.84;;;17.49;60.56
54666;BME280;40566;50.006;36.180;2023-08-31T02:16:39;99549.03;;;17.43;60.31
54666;BME280;40566;50.006;36.180;2023-08-31T02:21:40;99547.53;;;17.39;60.34
54666;BME280;40566;50.006;36.180;2023-08-31T02:26:40;99557.53;;;17.33;60.76
54666;BME280;40566;50.006;36.180;2023-08-31T02:31:41;99555.00;;;17.31;60.60
54666;BME280;40566;50.006;36.180;2023-08-31T02:36:43;99551.63;;;17.29;61.09
54666;BME280;40566;50.006;36.180;2023-08-31T02:41:44;99556.19;;;17.25;60.85
54666;BME280;40566;50.006;36.180;2023-08-31T02:46:44;99548.63;;;17.21;61.06
54666;BME280;40566;50.006;36.180;2023-08-31T02:51:45;99552.38;;;17.17;61.27
54666;BME280;40566;50.006;36.180;2023-08-31T02:56:45;99564.69;;;17.15;61.41
54666;BME280;40566;50.006;36.180;2023-08-31T03:01:46;99557.19;;;17.09;61.26
54666;BME280;40566;50.006;36.180;2023-08-31T03:06:47;99564.66;;;17.00;61.72
54666;BME280;40566;50.006;36.180;2023-08-31T03:11:48;99568.84;;;17.03;61.74
54666;BME280;40566;50.006;36.180;2023-08-31T03:16:48;99558.31;;;17.04;62.19
54666;BME280;40566;50.006;36.180;2023-08-31T03:21:49;99570.44;;;17.05;62.08
54666;BME280;40566;50.006;36.180;2023-08-31T03:26:50;99582.59;;;17.07;61.84
54666;BME280;40566;50.006;36.180;2023-08-31T03:31:50;99598.25;;;17.07;61.85
54666;BME280;40566;50.006;36.180;2023-08-31T03:36:51;99602.53;;;17.08;61.95
54666;BME280;40566;50.006;36.180;2023-08-31T03:41:51;99598.94;;;17.10;61.87
54666;BME280;40566;50.006;36.180;2023-08-31T03:46:52;99603.69;;;17.18;62.17
54666;BME280;40566;50.006;36.180;2023-08-31T03:51:52;99599.88;;;17.23;62.12
54666;BME280;40566;50.006;36.180;2023-08-31T03:56:54;99604.13;;;17.26;61.98
54666;BME280;40566;50.006;36.180;2023-08-31T04:01:54;99615.97;;;17.32;62.01
54666;BME280;40566;50.006;36.180;2023-08-31T04:06:55;99600.72;;;17.40;62.35
54666;BME280;40566;50.006;36.180;2023-08-31T04:11:56;99612.38;;;17.49;62.42
54666;BME280;40566;50.006;36.180;2023-08-31T04:16:57;99615.31;;;17.58;61.90
54666;BME280;40566;50.006;36.180;2023-08-31T04:21:58;99607.94;;;17.65;61.87
54666;BME280;40566;50.006;36.180;2023-08-31T04:26:59;99618.59;;;17.76;61.39
54666;BME280;40566;50.006;36.180;2023-08-31T04:32:00;99619.97;;;17.83;61.37
54666;BME280;40566;50.006;36.180;2023-08-31T04:37:00;99628.28;;;17.90;61.02
54666;BME280;40566;50.006;36.180;2023-08-31T04:42:01;99630.44;;;17.98;60.50
54666;BME280;40566;50.006;36.180;2023-08-31T04:47:02;99618.47;;;18.08;60.40
54666;BME280;40566;50.006;36.180;2023-08-31T04:52:02;99605.38;;;18.22;59.84
54666;BME280;40566;50.006;36.180;2023-08-31T04:57:03;99621.09;;;18.37;58.97
54666;BME280;40566;50.006;36.180;2023-08-31T05:02:04;99635.84;;;18.52;58.37
54666;BME280;40566;50.006;36.180;2023-08-31T05:07:05;99636.22;;;18.60;57.10
54666;BME280;40566;50.006;36.180;2023-08-31T05:12:06;99635.81;;;18.67;57.18
54666;BME280;40566;50.006;36.180;2023-08-31T05:17:09;99626.16;;;18.81;55.45
54666;BME280;40566;50.006;36.180;2023-08-31T05:22:10;99647.72;;;18.99;54.29
54666;BME280;40566;50.006;36.180;2023-08-31T05:27:11;99637.94;;;19.16;53.89
54666;BME280;40566;50.006;36.180;2023-08-31T05:32:12;99642.47;;;19.27;53.56
54666;BME280;40566;50.006;36.180;2023-08-31T05:37:12;99640.50;;;19.43;53.01
54666;BME280;40566;50.006;36.180;2023-08-31T05:42:14;99637.72;;;19.59;52.73
54666;BME280;40566;50.006;36.180;2023-08-31T05:47:14;99636.84;;;19.73;52.44
54666;BME280;40566;50.006;36.180;2023-08-31T05:52:15;99640.41;;;19.85;51.76
54666;BME280;40566;50.006;36.180;2023-08-31T05:57:18;99616.44;;;20.02;51.60
54666;BME280;40566;50.006;36.180;2023-08-31T06:02:19;99621.59;;;20.16;50.84
54666;BME280;40566;50.006;36.180;2023-08-31T06:07:20;99625.88;;;20.30;50.24
54666;BME280;40566;50.006;36.180;2023-08-31T06:12:21;99623.75;;;20.48;49.07
54666;BME280;40566;50.006;36.180;2023-08-31T06:17:21;99626.25;;;20.63;48.54
54666;BME280;40566;50.006;36.180;2023-08-31T06:22:22;99617.91;;;20.82;47.28
54666;BME280;40566;50.006;36.180;2023-08-31T06:27:24;99620.00;;;21.00;45.99
54666;BME280;40566;50.006;36.180;2023-08-31T06:32:25;99618.66;;;21.19;45.54
54666;BME280;40566;50.006;36.180;2023-08-31T06:37:27;99621.00;;;21.35;44.71
54666;BME280;40566;50.006;36.180;2023-08-31T06:42:28;99615.66;;;21.48;44.53
54666;BME280;40566;50.006;36.180;2023-08-31T06:47:28;99620.50;;;21.65;43.64
54666;BME280;40566;50.006;36.180;2023-08-31T06:52:29;99616.81;;;21.79;43.05
54666;BME280;40566;50.006;36.180;2023-08-31T06:57:30;99623.06;;;22.01;42.43
54666;BME280;40566;50.006;36.180;2023-08-31T07:02:30;99625.13;;;22.20;41.81
54666;BME280;40566;50.006;36.180;2023-08-31T07:07:31;99621.16;;;22.36;41.12
54666;BME280;40566;50.006;36.180;2023-08-31T07:12:31;99626.56;;;22.46;40.39
54666;BME280;40566;50.006;36.180;2023-08-31T07:17:32;99630.63;;;22.62;39.26
54666;BME280;40566;50.006;36.180;2023-08-31T07:22:34;99616.44;;;22.74;39.08
54666;BME280;40566;50.006;36.180;2023-08-31T07:27:35;99616.28;;;22.87;38.50
54666;BME280;40566;50.006;36.180;2023-08-31T07:32:36;99619.38;;;23.03;38.28
54666;BME280;40566;50.006;36.180;2023-08-31T07:37:36;99609.09;;;23.21;37.48
54666;BME280;40566;50.006;36.180;2023-08-31T07:42:37;99623.56;;;23.38;37.78
54666;BME280;40566;50.006;36.180;2023-08-31T07:47:38;99623.94;;;23.54;37.31
54666;BME280;40566;50.006;36.180;2023-08-31T07:52:38;99624.06;;;23.74;37.05
54666;BME280;40566;50.006;36.180;2023-08-31T07:57:39;99614.28;;;23.86;36.69
54666;BME280;40566;50.006;36.180;2023-08-31T08:02:40;99612.66;;;23.94;36.29
54666;BME280;40566;50.006;36.180;2023-08-31T08:07:40;99601.88;;;24.07;35.55
54666;BME280;40566;50.006;36.180;2023-08-31T08:12:42;99610.13;;;24.24;35.53
54666;BME280;40566;50.006;36.180;2023-08-31T08:17:46;99607.13;;;24.38;35.08
54666;BME280;40566;50.006;36.180;2023-08-31T08:22:48;99601.28;;;24.44;34.70
54666;BME280;40566;50.006;36.180;2023-08-31T08:27:52;99604.13;;;24.52;34.24
54666;BME280;40566;50.006;36.180;2023-08-31T08:32:54;99582.97;;;24.62;34.05
54666;BME280;40566;50.006;36.180;2023-08-31T08:37:54;99597.22;;;24.71;33.77
54666;BME280;40566;50.006;36.180;2023-08-31T08:42:55;99599.44;;;24.85;33.53
54666;BME280;40566;50.006;36.180;2023-08-31T08:47:58;99598.75;;;24.93;33.08
54666;BME280;40566;50.006;36.180;2023-08-31T08:53:05;99592.22;;;25.07;32.52
54666;BME280;40566;50.006;36.180;2023-08-31T08:58:07;99589.81;;;25.04;33.66
54666;BME280;40566;50.006;36.180;2023-08-31T09:03:07;99591.94;;;25.29;32.93
54666;BME280;40566;50.006;36.180;2023-08-31T09:08:09;99586.50;;;25.41;32.15
54666;BME280;40566;50.006;36.180;2023-08-31T09:13:15;99590.53;;;25.45;32.45
54666;BME280;40566;50.006;36.180;2023-08-31T09:18:31;99577.13;;;25.56;32.21
54666;BME280;40566;50.006;36.180;2023-08-31T09:23:32;99593.84;;;25.66;31.92
54666;BME280;40566;50.006;36.180;2023-08-31T09:28:34;99586.69;;;25.77;31.81
54666;BME280;40566;50.006;36.180;2023-08-31T09:33:35;99580.53;;;25.86;30.87
54666;BME280;40566;50.006;36.180;2023-08-31T09:38:42;99561.38;;;26.29;30.25
54666;BME280;40566;50.006;36.180;2023-08-31T09:43:45;99582.94;;;28.55;27.23
54666;BME280;40566;50.006;36.180;2023-08-31T09:48:47;99582.41;;;27.48;28.57
54666;BME280;40566;50.006;36.180;2023-08-31T09:53:48;99583.16;;;27.59;28.14
54666;BME280;40566;50.006;36.180;2023-08-31T09:58:50;99584.91;;;27.06;28.42
54666;BME280;40566;50.006;36.180;2023-08-31T10:03:54;99580.56;;;26.87;28.81
54666;BME280;40566;50.006;36.180;2023-08-31T10:08:55;99573.69;;;26.76;28.50
54666;BME280;40566;50.006;36.180;2023-08-31T10:13:57;99569.41;;;26.83;29.18
54666;BME280;40566;50.006;36.180;2023-08-31T10:18:59;99575.66;;;26.92;28.40
54666;BME280;40566;50.006;36.180;2023-08-31T10:24:00;99558.28;;;26.98;28.57
54666;BME280;40566;50.006;36.180;2023-08-31T10:29:00;99568.03;;;26.97;28.50
54666;BME280;40566;50.006;36.180;2023-08-31T10:34:05;99555.00;;;27.04;28.07
54666;BME280;40566;50.006;36.180;2023-08-31T10:39:16;99553.91;;;27.15;28.23
54666;BME280;40566;50.006;36.180;2023-08-31T10:44:19;99556.91;;;27.29;28.07
54666;BME280;40566;50.006;36.180;2023-08-31T10:49:22;99552.94;;;27.34;28.06
54666;BME280;40566;50.006;36.180;2023-08-31T10:54:30;99547.03;;;27.48;27.49
54666;BME280;40566;50.006;36.180;2023-08-31T10:59:51;99543.56;;;27.47;27.63
54666;BME280;40566;50.006;36.180;2023-08-31T11:04:53;99536.47;;;27.56;27.59
54666;BME280;40566;50.006;36.180;2023-08-31T11:10:11;99529.72;;;27.70;27.53
54666;BME280;40566;50.006;36.180;2023-08-31T11:15:13;99525.94;;;27.73;27.39
54666;BME280;40566;50.006;36.180;2023-08-31T11:20:16;99508.91;;;27.92;26.66
54666;BME280;40566;50.006;36.180;2023-08-31T11:25:17;99509.19;;;30.88;23.51
54666;BME280;40566;50.006;36.180;2023-08-31T11:30:18;99518.84;;;30.97;23.66
54666;BME280;40566;50.006;36.180;2023-08-31T11:35:22;99512.16;;;30.15;24.60
54666;BME280;40566;50.006;36.180;2023-08-31T11:40:26;99506.25;;;30.28;24.18
54666;BME280;40566;50.006;36.180;2023-08-31T11:45:27;99500.88;;;29.57;25.04
54666;BME280;40566;50.006;36.180;2023-08-31T11:50:28;99495.47;;;29.01;25.10
54666;BME280;40566;50.006;36.180;2023-08-31T11:55:33;99496.66;;;28.74;25.23
54666;BME280;40566;50.006;36.180;2023-08-31T12:00:33;99502.13;;;28.73;24.95
54666;BME280;40566;50.006;36.180;2023-08-31T12:05:47;99484.81;;;28.77;25.02
54666;BME280;40566;50.006;36.180;2023-08-31T12:10:48;99500.47;;;28.63;25.36
54666;BME280;40566;50.006;36.180;2023-08-31T12:15:52;99484.47;;;28.55;25.40
54666;BME280;40566;50.006;36.180;2023-08-31T12:20:53;99487.13;;;28.47;25.59
54666;BME280;40566;50.006;36.180;2023-08-31T12:25:54;99481.16;;;28.86;25.22
54666;BME280;40566;50.006;36.180;2023-08-31T12:30:55;99485.41;;;29.53;24.20
54666;BME280;40566;50.006;36.180;2023-08-31T12:35:56;99483.13;;;29.33;24.30
54666;BME280;40566;50.006;36.180;2023-08-31T12:40:57;99462.19;;;28.81;25.04
54666;BME280;40566;50.006;36.180;2023-08-31T12:45:58;99471.16;;;28.47;25.02
54666;BME280;40566;50.006;36.180;2023-08-31T12:50:59;99455.34;;;28.37;25.55
54666;BME280;40566;50.006;36.180;2023-08-31T12:55:59;99467.00;;;28.36;25.11
54666;BME280;40566;50.006;36.180;2023-08-31T13:01:00;99454.31;;;28.22;25.06
54666;BME280;40566;50.006;36.180;2023-08-31T13:06:01;99452.97;;;28.18;25.43
54666;BME280;40566;50.006;36.180;2023-08-31T13:11:01;99458.94;;;28.12;26.05
54666;BME280;40566;50.006;36.180;2023-08-31T13:16:04;99457.97;;;28.04;25.89
54666;BME280;40566;50.006;36.180;2023-08-31T13:21:05;99454.28;;;27.97;25.54
54666;BME280;40566;50.006;36.180;2023-08-31T13:26:05;99455.38;;;27.86;25.26
54666;BME280;40566;50.006;36.180;2023-08-31T13:31:06;99456.50;;;27.76;25.51
54666;BME280;40566;50.006;36.180;2023-08-31T13:36:06;99451.00;;;27.69;25.17
54666;BME280;40566;50.006;36.180;2023-08-31T13:41:08;99456.09;;;27.62;25.36
54666;BME280;40566;50.006;36.180;2023-08-31T13:46:09;99453.56;;;27.53;24.98
54666;BME280;40566;50.006;36.180;2023-08-31T13:51:09;99457.38;;;27.50;25.30
54666;BME280;40566;50.006;36.180;2023-08-31T13:56:10;99449.06;;;27.45;25.37
54666;BME280;40566;50.006;36.180;2023-08-31T14:01:10;99450.19;;;27.42;25.53
54666;BME280;40566;50.006;36.180;2023-08-31T14:06:13;99445.22;;;27.39;25.46
54666;BME280;40566;50.006;36.180;2023-08-31T14:11:15;99437.38;;;27.29;25.54
54666;BME280;40566;50.006;36.180;2023-08-31T14:16:15;99440.63;;;27.23;25.60
54666;BME280;40566;50.006;36.180;2023-08-31T14:21:16;99442.25;;;27.16;26.03
54666;BME280;40566;50.006;36.180;2023-08-31T14:26:17;99441.38;;;27.07;26.16
54666;BME280;40566;50.006;36.180;2023-08-31T14:31:18;99428.88;;;27.00;26.15
54666;BME280;40566;50.006;36.180;2023-08-31T14:36:19;99437.75;;;26.90;26.36
54666;BME280;40566;50.006;36.180;2023-08-31T14:41:19;99449.97;;;26.83;26.32
54666;BME280;40566;50.006;36.180;2023-08-31T14:46:20;99433.03;;;26.76;26.80
54666;BME280;40566;50.006;36.180;2023-08-31T14:51:22;99438.28;;;26.68;26.99
54666;BME280;40566;50.006;36.180;2023-08-31T14:56:22;99447.00;;;26.60;26.92
54666;BME280;40566;50.006;36.180;2023-08-31T15:01:23;99443.41;;;26.51;27.11
54666;BME280;40566;50.006;36.180;2023-08-31T15:06:25;99440.66;;;26.43;27.48
54666;BME280;40566;50.006;36.180;2023-08-31T15:11:27;99423.00;;;26.34;27.94
54666;BME280;40566;50.006;36.180;2023-08-31T15:16:27;99428.84;;;26.20;27.90
54666;BME280;40566;50.006;36.180;2023-08-31T15:21:28;99423.75;;;26.08;27.65
54666;BME280;40566;50.006;36.180;2023-08-31T15:26:29;99429.84;;;26.01;27.99
54666;BME280;40566;50.006;36.180;2023-08-31T15:31:30;99421.78;;;25.92;28.43
54666;BME280;40566;50.006;36.180;2023-08-31T15:36:30;99416.13;;;25.78;28.75
54666;BME280;40566;50.006;36.180;2023-08-31T15:41:31;99410.22;;;25.66;29.44
54666;BME280;40566;50.006;36.180;2023-08-31T15:46:36;99411.81;;;25.49;29.71
54666;BME280;40566;50.006;36.180;2023-08-31T15:51:38;99423.03;;;25.33;29.85
54666;BME280;40566;50.006;36.180;2023-08-31T15:56:38;99414.84;;;25.17;30.35
54666;BME280;40566;50.006;36.180;2023-08-31T16:01:39;99412.81;;;25.01;30.60
54666;BME280;40566;50.006;36.180;2023-08-31T16:06:39;99414.22;;;24.85;31.14
54666;BME280;40566;50.006;36.180;2023-08-31T16:11:41;99404.38;;;24.68;31.51
54666;BME280;40566;50.006;36.180;2023-08-31T16:16:41;99407.31;;;24.55;31.17
54666;BME280;40566;50.006;36.180;2023-08-31T16:21:42;99409.25;;;24.43;31.19
54666;BME280;40566;50.006;36.180;2023-08-31T16:26:43;99418.13;;;24.32;31.45
54666;BME280;40566;50.006;36.180;2023-08-31T16:31:43;99418.13;;;24.23;31.44
54666;BME280;40566;50.006;36.180;2023-08-31T16:36:45;99419.25;;;24.10;31.79
54666;BME280;40566;50.006;36.180;2023-08-31T16:41:46;99422.56;;;24.03;31.98
54666;BME280;40566;50.006;36.180;2023-08-31T16:46:47;99430.75;;;23.90;32.94
54666;BME280;40566;50.006;36.180;2023-08-31T16:51:48;99426.41;;;23.79;34.30
54666;BME280;40566;50.006;36.180;2023-08-31T16:56:49;99425.66;;;23.67;34.79
54666;BME280;40566;50.006;36.180;2023-08-31T17:01:50;99441.75;;;23.54;35.65
54666;BME280;40566;50.006;36.180;2023-08-31T17:06:51;99434.91;;;23.42;35.68
54666;BME280;40566;50.006;36.180;2023-08-31T17:11:51;99437.22;;;23.35;35.28
54666;BME280;40566;50.006;36.180;2023-08-31T17:16:52;99441.09;;;23.31;35.98
54666;BME280;40566;50.006;36.180;2023-08-31T17:21:53;99444.50;;;23.22;36.53
54666;BME280;40566;50.006;36.180;2023-08-31T17:26:53;99447.94;;;23.13;36.84
54666;BME280;40566;50.006;36.180;2023-08-31T17:31:55;99454.97;;;23.03;37.45
54666;BME280;40566;50.006;36.180;2023-08-31T17:36:55;99456.53;;;22.94;37.53
54666;BME280;40566;50.006;36.180;2023-08-31T17:41:56;99456.34;;;22.86;38.58
54666;BME280;40566;50.006;36.180;2023-08-31T17:46:57;99452.69;;;22.77;39.33
54666;BME280;40566;50.006;36.180;2023-08-31T17:51:57;99452.22;;;22.72;38.99
54666;BME280;40566;50.006;36.180;2023-08-31T17:56:58;99452.75;;;22.66;38.62
54666;BME280;40566;50.006;36.180;2023-08-31T18:01:58;99447.00;;;22.61;39.52
54666;BME280;40566;50.006;36.180;2023-08-31T18:06:59;99452.91;;;22.53;39.54
54666;BME280;40566;50.006;36.180;2023-08-31T18:12:06;99458.56;;;22.48;41.02
54666;BME280;40566;50.006;36.180;2023-08-31T18:17:07;99447.22;;;22.36;41.05
54666;BME280;40566;50.006;36.180;2023-08-31T18:22:09;99431.31;;;22.27;40.85
54666;BME280;40566;50.006;36.180;2023-08-31T18:27:09;99449.66;;;22.17;41.70
54666;BME280;40566;50.006;36.180;2023-08-31T18:32:10;99437.25;;;22.08;42.12
54666;BME280;40566;50.006;36.180;2023-08-31T18:37:11;99441.06;;;22.04;42.55
54666;BME280;40566;50.006;36.180;2023-08-31T18:42:12;99445.03;;;21.98;41.74
54666;BME280;40566;50.006;36.180;2023-08-31T18:47:13;99458.44;;;21.95;42.20
54666;BME280;40566;50.006;36.180;2023-08-31T18:52:13;99450.78;;;21.92;42.90
54666;BME280;40566;50.006;36.180;2023-08-31T18:57:14;99450.22;;;21.88;42.19
54666;BME280;40566;50.006;36.180;2023-08-31T19:02:14;99449.72;;;21.83;41.71
54666;BME280;40566;50.006;36.180;2023-08-31T19:07:15;99456.09;;;21.81;41.14
54666;BME280;40566;50.006;36.180;2023-08-31T19:12:16;99455.38;;;21.78;40.54
54666;BME280;40566;50.006;36.180;2023-08-31T19:17:18;99466.13;;;21.75;40.75
54666;BME280;40566;50.006;36.180;2023-08-31T19:22:19;99466.50;;;21.71;40.86
54666;BME280;40566;50.006;36.180;2023-08-31T19:27:20;99466.84;;;21.66;40.13
54666;BME280;40566;50.006;36.180;2023-08-31T19:32:20;99472.47;;;21.62;40.71
54666;BME280;40566;50.006;36.180;2023-08-31T19:37:21;99476.31;;;21.57;41.41
54666;BME280;40566;50.006;36.180;2023-08-31T19:42:23;99480.25;;;21.52;41.40
54666;BME280;40566;50.006;36.180;2023-08-31T19:47:24;99487.53;;;21.48;42.19
54666;BME280;40566;50.006;36.180;2023-08-31T19:52:25;99485.28;;;21.44;42.45
54666;BME280;40566;50.006;36.180;2023-08-31T19:57:25;99495.28;;;21.38;43.03
54666;BME280;40566;50.006;36.180;2023-08-31T20:02:26;99493.97;;;21.33;42.74
54666;BME280;40566;50.006;36.180;2023-08-31T20:07:26;99494.31;;;21.28;42.61
54666;BME280;40566;50.006;36.180;2023-08-31T20:12:27;99492.16;;;21.22;42.22
54666;BME280;40566;50.006;36.180;2023-08-31T20:17:27;99495.25;;;21.16;42.26
54666;BME280;40566;50.006;36.180;2023-08-31T20:22:28;99491.19;;;21.12;43.36
54666;BME280;40566;50.006;36.180;2023-08-31T20:27:29;99480.16;;;21.07;44.45
54666;BME280;40566;50.006;36.180;2023-08-31T20:32:29;99484.94;;;21.02;43.56
54666;BME280;40566;50.006;36.180;2023-08-31T20:37:32;99467.00;;;20.95;44.56
54666;BME280;40566;50.006;36.180;2023-08-31T20:42:33;99481.56;;;20.88;45.09
54666;BME280;40566;50.006;36.180;2023-08-31T20:47:34;99488.81;;;20.85;45.65
54666;BME280;40566;50.006;36.180;2023-08-31T20:52:34;99488.22;;;20.81;45.39
54666;BME280;40566;50.006;36.180;2023-08-31T20:57:35;99482.47;;;20.76;45.24
54666;BME280;40566;50.006;36.180;2023-08-31T21:02:36;99499.19;;;20.75;45.69
54666;BME280;40566;50.006;36.180;2023-08-31T21:07:37;99498.56;;;20.71;45.55
54666;BME280;40566;50.006;36.180;2023-08-31T21:12:37;99495.34;;;20.68;45.70
54666;BME280;40566;50.006;36.180;2023-08-31T21:17:38;99496.06;;;20.70;45.34
54666;BME280;40566;50.006;36.180;2023-08-31T21:22:38;99496.28;;;20.67;46.12
54666;BME280;40566;50.006;36.180;2023-08-31T21:27:39;99493.16;;;20.62;46.29
54666;BME280;40566;50.006;36.180;2023-08-31T21:32:39;99485.81;;;20.54;46.44
54666;BME280;40566;50.006;36.180;2023-08-31T21:37:40;99479.84;;;20.52;46.93
54666;BME280;40566;50.006;36.180;2023-08-31T21:42:41;99475.63;;;20.49;46.41
54666;BME280;40566;50.006;36.180;2023-08-31T21:47:41;99474.19;;;20.45;45.84
54666;BME280;40566;50.006;36.180;2023-08-31T21:52:42;99482.63;;;20.37;46.10
54666;BME280;40566;50.006;36.180;2023-08-31T21:57:43;99480.44;;;20.31;46.32
54666;BME280;40566;50.006;36.180;2023-08-31T22:02:46;99453.56;;;20.28;46.79
54666;BME280;40566;50.006;36.180;2023-08-31T22:07:49;99469.88;;;20.20;46.48
54666;BME280;40566;50.006;36.180;2023-08-31T22:12:53;99469.47;;;20.13;47.27
54666;BME280;40566;50.006;36.180;2023-08-31T22:17:55;99463.72;;;20.08;47.51
54666;BME280;40566;50.006;36.180;2023-08-31T22:22:58;99455.44;;;20.01;47.63
54666;BME280;40566;50.006;36.180;2023-08-31T22:27:59;99458.63;;;19.94;47.13
54666;BME280;40566;50.006;36.180;2023-08-31T22:33:00;99457.06;;;19.91;46.94
54666;BME280;40566;50.006;36.180;2023-08-31T22:38:01;99464.94;;;19.91;46.74
54666;BME280;40566;50.006;36.180;2023-08-31T22:43:03;99457.50;;;19.85;47.12
54666;BME280;40566;50.006;36.180;2023-08-31T22:48:05;99453.63;;;19.78;47.10
54666;BME280;40566;50.006;36.180;2023-08-31T22:53:07;99457.50;;;19.72;46.75
54666;BME280;40566;50.006;36.180;2023-08-31T22:58:07;99461.16;;;19.70;46.60
54666;BME280;40566;50.006;36.180;2023-08-31T23:03:08;99458.88;;;19.65;46.87
54666;BME280;40566;50.006;36.180;2023-08-31T23:08:10;99460.03;;;19.61;46.59
54666;BME280;40566;50.006;36.180;2023-08-31T23:13:10;99449.75;;;19.58;47.01
54666;BME280;40566;50.006;36.180;2023-08-31T23:18:11;99463.59;;;19.60;46.85
54666;BME280;40566;50.006;36.180;2023-08-31T23:23:12;99450.72;;;19.57;47.45
54666;BME280;40566;50.006;36.180;2023-08-31T23:28:12;99456.88;;;19.56;47.26
54666;BME280;40566;50.006;36.180;2023-08-31T23:33:13;99458.03;;;19.52;47.57
54666;BME280;40566;50.006;36.180;2023-08-31T23:38:14;99460.88;;;19.49;46.89
54666;BME280;40566;50.006;36.180;2023-08-31T23:43:14;99461.94;;;19.46;47.77
54666;BME280;40566;50.006;36.180;2023-08-31T23:48:15;99472.31;;;19.48;47.62
54666;BME280;40566;50.006;36.180;2023-08-31T23:53:15;99469.91;;;19.45;48.40
54666;BME280;40566;50.006;36.180;2023-08-31T23:58:16;99474.22;;;19.46;47.74
